createdAt,value
2022-11-29T00:03:31.022Z,8.60
2022-11-29T00:08:29.175Z,8.60
2022-11-29T00:13:27.398Z,8.50
2022-11-29T00:18:25.676Z,8.50
2022-11-29T00:23:25.326Z,8.50
2022-11-29T00:28:23.538Z,8.80
2022-11-29T00:33:21.706Z,8.60
2022-11-29T00:38:19.894Z,8.60
2022-11-29T00:43:19.490Z,8.50
2022-11-29T00:48:17.683Z,8.50
2022-11-29T00:53:16.443Z,8.50
2022-11-29T00:58:14.667Z,8.50
2022-11-29T01:03:14.674Z,8.50
2022-11-29T01:08:14.923Z,8.40
2022-11-29T01:13:13.456Z,8.40
2022-11-29T01:18:12.071Z,8.30
2022-11-29T01:23:11.992Z,8.30
2022-11-29T01:28:10.191Z,8.40
2022-11-29T01:33:08.350Z,8.50
2022-11-29T01:38:06.558Z,8.50
2022-11-29T01:43:14.636Z,8.40
2022-11-29T01:48:14.881Z,8.50
2022-11-29T01:53:15.893Z,8.30
2022-11-29T01:58:16.843Z,8.30
2022-11-29T02:03:17.077Z,8.30
2022-11-29T02:08:17.935Z,8.20
2022-11-29T02:13:26.930Z,8.20
2022-11-29T02:18:34.957Z,8.10
2022-11-29T02:24:04.488Z,8.20
2022-11-29T02:29:32.222Z,8.20
2022-11-29T02:34:54.595Z,8.20
2022-11-29T02:40:25.238Z,8.10
2022-11-29T02:45:47.140Z,8.10
2022-11-29T02:50:54.520Z,8.10
2022-11-29T02:55:59.752Z,8.00
2022-11-29T03:01:08.033Z,8.00
2022-11-29T03:06:18.936Z,8.10
2022-11-29T03:11:29.308Z,8.10
2022-11-29T03:16:39.805Z,8.10
2022-11-29T03:21:50.119Z,8.10
2022-11-29T03:26:53.029Z,8.10
2022-11-29T03:31:57.614Z,8.20
2022-11-29T03:37:03.150Z,8.20
2022-11-29T03:42:07.334Z,8.20
2022-11-29T03:47:10.515Z,8.20
2022-11-29T03:52:17.543Z,8.10
2022-11-29T03:57:21.726Z,8.30
2022-11-29T04:02:42.105Z,8.10
2022-11-29T04:08:06.543Z,8.20
2022-11-29T04:13:54.707Z,8.20
2022-11-29T04:19:37.606Z,8.30
2022-11-29T04:25:04.839Z,8.20
2022-11-29T04:30:58.784Z,8.20
2022-11-29T04:36:11.987Z,8.20
2022-11-29T04:41:52.697Z,8.30
2022-11-29T04:47:12.765Z,8.20
2022-11-29T04:52:39.196Z,8.20
2022-11-29T04:57:43.247Z,8.10
2022-11-29T05:02:52.101Z,8.10
2022-11-29T05:07:59.370Z,8.10
2022-11-29T05:13:06.547Z,8.10
2022-11-29T05:18:14.518Z,8.00
2022-11-29T05:23:33.446Z,8.10
2022-11-29T05:28:38.998Z,8.00
2022-11-29T05:34:00.133Z,8.00
2022-11-29T05:39:16.894Z,8.20
2022-11-29T05:44:21.570Z,8.00
2022-11-29T05:49:30.463Z,8.00
2022-11-29T05:54:33.609Z,7.90
2022-11-29T05:59:33.704Z,8.30
2022-11-29T06:04:56.046Z,7.90
2022-11-29T06:10:01.958Z,8.00
2022-11-29T06:15:20.905Z,8.00
2022-11-29T06:20:32.436Z,8.00
2022-11-29T06:25:47.109Z,8.00
2022-11-29T06:30:56.495Z,8.00
2022-11-29T06:36:08.652Z,7.90
2022-11-29T06:41:07.516Z,7.80
2022-11-29T06:46:13.904Z,7.70
2022-11-29T06:51:21.194Z,7.70
2022-11-29T06:56:27.496Z,7.80
2022-11-29T07:01:37.320Z,7.90
2022-11-29T07:06:37.331Z,7.90
2022-11-29T07:18:38.144Z,8.00
2022-11-29T07:23:44.300Z,7.90
2022-11-29T07:28:58.141Z,8.00
2022-11-29T07:34:04.673Z,8.00
2022-11-29T07:39:18.465Z,8.00
2022-11-29T07:44:27.388Z,8.00
2022-11-29T07:49:25.683Z,8.10
2022-11-29T07:54:25.510Z,8.10
2022-11-29T07:59:23.714Z,8.10
2022-11-29T08:04:22.011Z,8.10
2022-11-29T08:09:20.334Z,8.10
2022-11-29T08:14:19.919Z,8.10
2022-11-29T08:19:18.144Z,8.00
2022-11-29T08:24:16.375Z,8.10
2022-11-29T08:29:14.736Z,8.10
2022-11-29T08:34:14.254Z,8.20
2022-11-29T08:39:12.950Z,8.20
2022-11-29T08:44:11.168Z,8.20
2022-11-29T08:49:09.377Z,8.20
2022-11-29T08:54:09.074Z,8.30
2022-11-29T08:59:07.661Z,8.30
2022-11-29T09:04:07.669Z,8.70
2022-11-29T09:09:06.485Z,8.30
2022-11-29T09:14:07.972Z,8.30
2022-11-29T09:25:54.539Z,8.40
2022-11-29T09:30:54.040Z,8.40
2022-11-29T09:35:52.196Z,8.40
2022-11-29T09:40:54.838Z,8.50
2022-11-29T09:46:01.537Z,8.70
2022-11-29T09:51:13.934Z,8.50
2022-11-29T09:56:23.551Z,8.50
2022-11-29T10:01:28.953Z,8.50
2022-11-29T10:06:32.034Z,8.60
2022-11-29T10:11:34.171Z,8.60
2022-11-29T10:16:42.280Z,8.70
2022-11-29T10:21:45.531Z,8.80
2022-11-29T10:26:43.893Z,8.90
2022-11-29T10:31:49.280Z,9.00
2022-11-29T10:36:50.239Z,9.00
2022-11-29T10:41:51.226Z,9.00
2022-11-29T10:46:51.020Z,9.10
2022-11-29T10:51:49.245Z,9.10
2022-11-29T10:56:49.107Z,9.10
2022-11-29T11:08:47.116Z,9.20
2022-11-29T11:13:57.944Z,9.20
2022-11-29T11:18:56.239Z,9.20
2022-11-29T11:23:58.713Z,9.20
2022-11-29T11:29:00.198Z,9.30
2022-11-29T11:34:18.866Z,9.40
2022-11-29T11:39:22.407Z,9.40
2022-11-29T11:44:46.784Z,9.40
2022-11-29T11:49:51.396Z,9.40
2022-11-29T11:54:55.508Z,9.50
2022-11-29T11:59:55.755Z,9.50
2022-11-29T12:04:56.059Z,9.50
2022-11-29T12:10:00.603Z,9.50
2022-11-29T12:15:01.807Z,9.50
2022-11-29T12:20:20.380Z,9.60
2022-11-29T12:25:24.388Z,9.50
2022-11-29T12:30:23.004Z,9.50
2022-11-29T12:35:46.853Z,9.50
2022-11-29T12:40:56.085Z,9.50
2022-11-29T12:46:04.615Z,9.40
2022-11-29T12:51:10.886Z,9.40
2022-11-29T12:56:17.283Z,9.40
2022-11-29T13:01:26.131Z,9.40
2022-11-29T13:06:30.495Z,9.30
2022-11-29T13:11:32.228Z,9.30
2022-11-29T13:16:41.622Z,9.30
2022-11-29T13:21:47.449Z,9.30
2022-11-29T13:26:47.624Z,9.30
2022-11-29T13:31:47.791Z,9.40
2022-11-29T13:36:55.259Z,9.30
2022-11-29T13:42:00.686Z,9.40
2022-11-29T13:47:06.741Z,9.40
2022-11-29T13:52:06.659Z,9.30
2022-11-29T13:57:08.439Z,9.20
2022-11-29T14:02:28.441Z,9.20
2022-11-29T14:07:26.861Z,9.10
2022-11-29T14:12:44.385Z,9.10
2022-11-29T14:17:52.275Z,9.20
2022-11-29T14:23:15.032Z,9.00
2022-11-29T14:28:34.854Z,9.10
2022-11-29T14:34:03.941Z,9.10
2022-11-29T14:39:36.944Z,9.00
2022-11-29T14:44:45.448Z,8.90
2022-11-29T14:49:46.233Z,9.00
2022-11-29T14:54:55.671Z,9.00
2022-11-29T14:59:55.938Z,9.00
2022-11-29T15:04:57.442Z,9.20
2022-11-29T15:09:59.042Z,9.00
2022-11-29T15:15:09.922Z,9.00
2022-11-29T15:20:34.323Z,9.00
2022-11-29T15:25:34.012Z,9.00
2022-11-29T15:30:35.589Z,9.00
2022-11-29T15:35:34.788Z,9.00
2022-11-29T15:40:35.649Z,9.00
2022-11-29T15:45:36.812Z,8.90
2022-11-29T15:50:35.657Z,8.90
2022-11-29T15:55:35.682Z,8.90
2022-11-29T16:00:35.365Z,9.00
2022-11-29T16:05:35.926Z,9.00
2022-11-29T16:10:37.577Z,9.00
2022-11-29T16:15:39.791Z,9.00
2022-11-29T16:20:38.154Z,9.00
2022-11-29T16:25:52.375Z,8.90
2022-11-29T16:30:52.063Z,8.80
2022-11-29T16:35:50.484Z,8.90
2022-11-29T16:41:04.485Z,8.90
2022-11-29T16:46:30.286Z,8.90
2022-11-29T16:58:18.190Z,8.80
2022-11-29T17:03:20.013Z,8.70
2022-11-29T17:08:18.231Z,8.60
2022-11-29T17:13:41.979Z,8.60
2022-11-29T17:18:42.074Z,8.60
2022-11-29T17:23:40.224Z,8.60
2022-11-29T17:28:38.444Z,8.60
2022-11-29T17:33:36.706Z,8.70
2022-11-29T17:38:36.409Z,8.60
2022-11-29T17:43:35.447Z,8.60
2022-11-29T17:48:33.829Z,8.60
2022-11-29T17:53:32.342Z,8.70
2022-11-29T17:58:32.691Z,8.70
2022-11-29T18:03:30.912Z,8.70
2022-11-29T18:08:29.517Z,8.80
2022-11-29T18:13:28.951Z,8.80
2022-11-29T18:18:28.685Z,8.80
2022-11-29T18:23:27.107Z,8.80
2022-11-29T18:28:25.294Z,8.80
2022-11-29T18:33:24.220Z,8.80
2022-11-29T18:38:23.771Z,8.80
2022-11-29T18:43:21.988Z,8.70
2022-11-29T18:48:20.187Z,8.70
2022-11-29T18:53:18.473Z,8.70
2022-11-29T18:58:18.449Z,8.70
2022-11-29T19:03:16.668Z,8.80
2022-11-29T19:08:14.869Z,8.60
2022-11-29T19:13:39.413Z,8.60
2022-11-29T19:18:37.849Z,8.70
2022-11-29T19:23:36.152Z,8.70
2022-11-29T19:28:36.511Z,8.80
2022-11-29T19:33:37.449Z,8.80
2022-11-29T19:38:36.981Z,8.90
2022-11-29T19:43:35.990Z,8.90
2022-11-29T19:48:35.649Z,8.90
2022-11-29T19:53:34.212Z,9.00
2022-11-29T19:58:33.804Z,8.90
2022-11-29T20:03:32.166Z,9.00
2022-11-29T20:08:32.441Z,9.00
2022-11-29T20:13:30.711Z,9.00
2022-11-29T20:18:31.880Z,9.00
2022-11-29T20:23:31.514Z,9.00
2022-11-29T20:28:30.026Z,9.00
2022-11-29T20:33:28.392Z,9.00
2022-11-29T20:38:35.067Z,9.00
2022-11-29T20:43:40.021Z,9.00
2022-11-29T20:48:38.556Z,9.00
2022-11-29T20:53:40.575Z,9.00
2022-11-29T20:58:40.230Z,9.00
2022-11-29T21:03:38.509Z,9.00
2022-11-29T21:08:38.232Z,9.00
2022-11-29T21:13:37.040Z,9.00
2022-11-29T21:18:35.830Z,9.00
2022-11-29T21:23:46.299Z,8.90
2022-11-29T21:28:53.699Z,8.90
2022-11-29T21:33:52.278Z,8.90
2022-11-29T21:45:48.427Z,8.80
2022-11-29T21:50:50.963Z,8.90
2022-11-29T21:55:49.127Z,8.80
2022-11-29T22:00:48.693Z,8.80
2022-11-29T22:05:48.461Z,8.90
2022-11-29T22:10:46.593Z,9.00
2022-11-29T22:16:11.946Z,9.00
2022-11-29T22:21:10.216Z,8.90
2022-11-29T22:26:09.320Z,8.90
2022-11-29T22:31:10.128Z,8.90
2022-11-29T22:36:11.838Z,8.90
2022-11-29T22:41:11.606Z,8.90
2022-11-29T22:46:11.273Z,8.90
2022-11-29T22:51:13.233Z,9.10
2022-11-29T22:56:12.545Z,8.80
2022-11-29T23:01:12.458Z,8.80
2022-11-29T23:06:14.406Z,8.70
2022-11-29T23:11:14.520Z,8.70
2022-11-29T23:16:14.688Z,8.70
2022-11-29T23:21:15.873Z,8.60
2022-11-29T23:26:20.167Z,8.70
2022-11-29T23:31:18.705Z,8.80
2022-11-29T23:36:18.944Z,8.80
2022-11-29T23:41:18.713Z,8.80
2022-11-29T23:46:18.420Z,8.90
2022-11-29T23:51:18.551Z,8.90
2022-11-29T23:56:18.356Z,8.90
